Weather at Agartala Airport

Public forecast

Using degrees Celsius for public forecast. Weather courtesy of forecast.io.

Current aviation weather report (METAR) for Agartala Airport

Retrieved 2020/12/05 11:30 UTC (0 seconds ago):

VEAT 051130Z 00000KT 2000 BR FEW020 23/21 Q1012 NOSIG

Aviation forecast (TAF) for Agartala Airport

Forecast is more than 12 hours old.

Retrieved 2013/07/19 12:00 UTC (7 years ago):

TAF VEAT 190900Z 1912/1921 16008KT 5000 HZ SCT018 FEW030CB BKN100 TEMPO 1912/1921 3000 -TSRA SCT015 FEW025CB OVC090